Time;durP1;ratioP1;P1;durP2;ratioP2;P2;SDS_P1;SDS_P2;PMS_P1;PMS_P2;Temp;Humidity;BMP_temperature;BMP_pressure;BME280_temperature;BME280_humidity;BME280_pressure;Samples;Min_cycle;Max_cycle;Signal;HPM_P1;HPM_P2
2023/10/26 00:01:48;;;;;;;;;;;;;;;12.84;100.00;96130.56;5087749;28;20019;-83
2023/10/26 00:04:14;;;;;;;;;;;;;;;12.86;100.00;96128.38;5081945;28;20364;-82
2023/10/26 00:06:42;;;;;;;;;;;;;;;12.93;100.00;96128.66;5089126;28;20521;-83
2023/10/26 00:09:08;;;;;;;;;;;;;;;12.94;100.00;96132.09;5057726;28;20406;-82
2023/10/26 00:11:36;;;;;;;;;;;;;;;12.90;100.00;96129.28;5082689;28;19924;-83
2023/10/26 00:14:03;;;;;;;;;;;;;;;12.97;100.00;96132.25;5059662;28;19951;-83
2023/10/26 00:16:29;;;;;;;;;;;;;;;12.87;100.00;96123.81;5086925;28;19981;-82
2023/10/26 00:18:56;;;;;;;;;;;;;;;12.97;100.00;96124.22;5084864;28;19928;-83
2023/10/26 00:21:22;;;;;;;;;;;;;;;12.89;100.00;96124.25;5080175;28;19955;-84
2023/10/26 00:23:49;;;;;;;;;;;;;;;12.94;100.00;96122.19;5070732;28;19924;-83
2023/10/26 00:26:15;;;;;;;;;;;;;;;12.89;100.00;96125.06;5085371;28;19924;-82
2023/10/26 00:28:43;;;;;;;;;;;;;;;12.81;100.00;96131.19;5083955;28;19967;-84
2023/10/26 00:31:09;;;;;;;;;;;;;;;12.81;100.00;96128.53;5078931;28;20015;-82
2023/10/26 00:33:35;;;;;;;;;;;;;;;12.81;100.00;96123.16;5084124;28;19975;-83
2023/10/26 00:36:02;;;;;;;;;;;;;;;12.90;100.00;96133.88;5085069;28;19927;-83
2023/10/26 00:38:28;;;;;;;;;;;;;;;12.83;100.00;96133.56;5079066;28;20358;-82
2023/10/26 00:40:54;;;;;;;;;;;;;;;12.89;100.00;96135.75;5084051;28;20026;-83
2023/10/26 00:43:21;;;;;;;;;;;;;;;12.85;100.00;96140.19;5087698;28;19932;-83
2023/10/26 00:45:51;;;;;;;;;;;;;;;12.88;100.00;96139.53;5070023;28;19924;-84
2023/10/26 00:48:17;;;;;;;;;;;;;;;12.88;100.00;96136.88;5085504;28;19924;-83
2023/10/26 00:50:43;;;;;;;;;;;;;;;12.81;100.00;96133.13;5083793;28;19928;-82
2023/10/26 00:53:10;;;;;;;;;;;;;;;12.78;100.00;96142.56;5083447;28;20018;-83
2023/10/26 00:55:37;;;;;;;;;;;;;;;12.85;100.00;96142.06;5085279;28;19928;-83
2023/10/26 00:58:03;;;;;;;;;;;;;;;12.86;100.00;96152.47;5070100;28;20978;-84
2023/10/26 01:00:31;;;;;;;;;;;;;;;12.90;100.00;96152.63;5081045;28;19932;-83
2023/10/26 01:02:59;;;;;;;;;;;;;;;12.90;100.00;96153.38;5079620;28;20402;-83
2023/10/26 01:05:26;;;;;;;;;;;;;;;12.92;100.00;96137.81;5075175;28;19924;-84
2023/10/26 01:07:52;;;;;;;;;;;;;;;12.88;100.00;96152.94;5100745;28;19930;-83
2023/10/26 01:10:18;;;;;;;;;;;;;;;12.86;100.00;96151.69;5083874;28;19928;-82
2023/10/26 01:12:45;;;;;;;;;;;;;;;12.95;100.00;96142.53;5088717;28;19934;-83
2023/10/26 01:15:11;;;;;;;;;;;;;;;12.95;100.00;96155.91;5089118;28;19924;-84
2023/10/26 01:17:37;;;;;;;;;;;;;;;12.92;100.00;96151.19;5088915;28;19928;-82
2023/10/26 01:20:06;;;;;;;;;;;;;;;12.93;100.00;96157.34;5077581;28;19934;-82
2023/10/26 01:22:34;;;;;;;;;;;;;;;12.86;100.00;96151.69;5087960;28;20019;-82
2023/10/26 01:25:00;;;;;;;;;;;;;;;12.94;100.00;96148.19;5088435;28;20363;-83
2023/10/26 01:27:26;;;;;;;;;;;;;;;12.89;100.00;96153.72;5074725;28;20035;-83
2023/10/26 01:29:53;;;;;;;;;;;;;;;12.96;100.00;96157.50;5075337;28;20023;-82
2023/10/26 01:32:20;;;;;;;;;;;;;;;12.88;100.00;96150.25;5071922;28;19928;-81
2023/10/26 01:34:45;;;;;;;;;;;;;;;12.93;100.00;96150.09;5075481;28;20367;-83
2023/10/26 01:37:12;;;;;;;;;;;;;;;12.91;100.00;96144.25;5078010;28;19929;-83
2023/10/26 01:39:39;;;;;;;;;;;;;;;12.94;100.00;96145.50;5088551;28;20017;-82
2023/10/26 01:42:09;;;;;;;;;;;;;;;12.96;100.00;96152.13;5057768;28;20019;-83
2023/10/26 01:44:36;;;;;;;;;;;;;;;12.93;100.00;96152.78;5073969;28;20577;-84
2023/10/26 01:47:02;;;;;;;;;;;;;;;12.84;100.00;96143.19;5068606;28;19929;-84
2023/10/26 01:49:29;;;;;;;;;;;;;;;12.79;100.00;96138.78;5076049;28;19928;-83
2023/10/26 01:51:55;;;;;;;;;;;;;;;12.75;100.00;96135.16;5066476;28;19932;-83
2023/10/26 01:54:22;;;;;;;;;;;;;;;12.84;100.00;96132.47;5072358;28;19924;-82
2023/10/26 01:56:49;;;;;;;;;;;;;;;12.87;100.00;96143.31;5074430;28;19924;-84
2023/10/26 01:59:16;;;;;;;;;;;;;;;12.73;100.00;96134.72;5071189;28;20011;-84
2023/10/26 02:01:42;;;;;;;;;;;;;;;12.81;100.00;96138.47;5071979;28;19942;-83
2023/10/26 02:04:08;;;;;;;;;;;;;;;12.79;100.00;96141.47;5082707;28;19924;-83
2023/10/26 02:06:35;;;;;;;;;;;;;;;12.84;100.00;96140.50;5073727;28;19928;-82
2023/10/26 02:09:02;;;;;;;;;;;;;;;12.79;100.00;96144.13;5070340;28;19997;-83
2023/10/26 02:11:28;;;;;;;;;;;;;;;12.80;100.00;96139.56;5065727;28;20339;-82
2023/10/26 02:13:56;;;;;;;;;;;;;;;12.69;100.00;96135.69;5074618;28;20538;-83
2023/10/26 02:16:22;;;;;;;;;;;;;;;12.70;100.00;96134.56;5079955;28;20553;-83
2023/10/26 02:18:48;;;;;;;;;;;;;;;12.72;100.00;96138.47;5077824;28;20023;-83
2023/10/26 02:21:15;;;;;;;;;;;;;;;12.78;100.00;96129.16;5081163;28;20498;-82
2023/10/26 02:23:41;;;;;;;;;;;;;;;12.81;100.00;96131.19;5068730;28;19999;-83
2023/10/26 02:26:08;;;;;;;;;;;;;;;12.74;100.00;96127.47;5077266;28;19931;-83
2023/10/26 02:28:34;;;;;;;;;;;;;;;12.72;100.00;96135.81;5081320;28;19932;-83
2023/10/26 02:31:02;;;;;;;;;;;;;;;12.79;100.00;96129.97;5069669;28;19924;-83
2023/10/26 02:33:28;;;;;;;;;;;;;;;12.77;100.00;96129.50;5076315;28;20571;-83
2023/10/26 02:35:55;;;;;;;;;;;;;;;12.80;100.00;96128.84;5076683;28;20027;-83
2023/10/26 02:38:21;;;;;;;;;;;;;;;12.71;100.00;96128.88;5091994;28;20019;-82
2023/10/26 02:40:47;;;;;;;;;;;;;;;12.70;100.00;96127.31;5078014;28;20474;-85
2023/10/26 02:43:14;;;;;;;;;;;;;;;12.74;100.00;96124.78;5091949;28;19935;-83
2023/10/26 02:45:40;;;;;;;;;;;;;;;12.72;100.00;96125.09;5091738;28;19955;-84
2023/10/26 02:48:08;;;;;;;;;;;;;;;12.72;100.00;96119.72;5078383;28;19931;-83
2023/10/26 02:50:35;;;;;;;;;;;;;;;12.65;100.00;96119.47;5085957;28;20011;-84
2023/10/26 02:53:01;;;;;;;;;;;;;;;12.70;100.00;96132.66;5072262;28;19924;-83
2023/10/26 02:55:27;;;;;;;;;;;;;;;12.65;100.00;96124.81;5073684;28;19951;-82
2023/10/26 02:57:54;;;;;;;;;;;;;;;12.69;100.00;96130.31;5077649;28;19928;-82
2023/10/26 03:00:20;;;;;;;;;;;;;;;12.63;100.00;96126.22;5072237;28;20043;-82
2023/10/26 03:02:47;;;;;;;;;;;;;;;12.66;100.00;96126.38;5076198;28;20501;-83
2023/10/26 03:05:15;;;;;;;;;;;;;;;12.68;100.00;96129.53;5078019;28;19932;-83
2023/10/26 03:07:41;;;;;;;;;;;;;;;12.72;100.00;96129.69;5075565;28;19928;-83
2023/10/26 03:10:08;;;;;;;;;;;;;;;12.63;100.00;96131.56;5070438;28;20111;-83
2023/10/26 03:12:34;;;;;;;;;;;;;;;12.59;100.00;96127.97;5065092;28;20026;-83
2023/10/26 03:15:00;;;;;;;;;;;;;;;12.60;100.00;96138.34;5084383;28;19924;-83
2023/10/26 03:17:27;;;;;;;;;;;;;;;12.58;100.00;96135.22;5085047;28;20818;-83
2023/10/26 03:19:53;;;;;;;;;;;;;;;12.53;100.00;96132.72;5097607;28;20426;-82
2023/10/26 03:22:21;;;;;;;;;;;;;;;12.57;100.00;96138.19;5069435;28;20311;-82
2023/10/26 03:24:49;;;;;;;;;;;;;;;12.59;100.00;96136.78;5075676;28;20502;-83
2023/10/26 03:27:15;;;;;;;;;;;;;;;12.59;100.00;96136.78;5068190;28;19967;-82
2023/10/26 03:29:42;;;;;;;;;;;;;;;12.56;100.00;96134.75;5070996;28;19942;-82
2023/10/26 03:32:08;;;;;;;;;;;;;;;12.55;100.00;96135.84;5076916;28;19924;-82
2023/10/26 03:34:35;;;;;;;;;;;;;;;12.52;100.00;96135.69;5078004;28;19931;-83
2023/10/26 03:37:01;;;;;;;;;;;;;;;12.57;100.00;96135.53;5089483;28;19934;-82
2023/10/26 03:39:29;;;;;;;;;;;;;;;12.47;100.00;96139.34;5081962;28;19935;-84
2023/10/26 03:41:56;;;;;;;;;;;;;;;12.58;100.00;96140.56;5084177;28;19928;-82
2023/10/26 03:44:22;;;;;;;;;;;;;;;12.55;100.00;96143.09;5087100;28;19947;-83
2023/10/26 03:46:48;;;;;;;;;;;;;;;12.44;100.00;96137.28;5089151;28;19931;-84
2023/10/26 03:49:15;;;;;;;;;;;;;;;12.57;100.00;96133.63;5082530;28;19925;-84
2023/10/26 03:51:41;;;;;;;;;;;;;;;12.56;100.00;96134.75;5083478;28;19924;-83
2023/10/26 03:54:07;;;;;;;;;;;;;;;12.54;100.00;96138.84;5074151;28;19934;-83
2023/10/26 03:56:35;;;;;;;;;;;;;;;12.64;100.00;96141.19;5076708;28;20027;-83
2023/10/26 03:59:02;;;;;;;;;;;;;;;12.66;100.00;96141.63;5069030;28;20323;-83
2023/10/26 04:01:28;;;;;;;;;;;;;;;12.50;100.00;96140.59;5075547;28;19928;-82
2023/10/26 04:03:55;;;;;;;;;;;;;;;12.61;100.00;96133.78;5069404;28;20047;-82
2023/10/26 04:06:21;;;;;;;;;;;;;;;12.57;100.00;96128.28;5072492;28;20145;-83
2023/10/26 04:08:48;;;;;;;;;;;;;;;12.57;100.00;96128.28;5069897;28;19924;-83
2023/10/26 04:11:16;;;;;;;;;;;;;;;12.56;100.00;96132.09;5085493;28;20407;-83
2023/10/26 04:13:44;;;;;;;;;;;;;;;12.49;100.00;96118.38;5081388;28;19928;-83
2023/10/26 04:16:11;;;;;;;;;;;;;;;12.58;100.00;96115.69;5088269;28;19924;-84
2023/10/26 04:18:37;;;;;;;;;;;;;;;12.53;100.00;96111.28;5086359;28;19930;-84
2023/10/26 04:21:04;;;;;;;;;;;;;;;12.50;100.00;96114.63;5086669;28;20083;-84
2023/10/26 04:23:30;;;;;;;;;;;;;;;12.57;100.00;96117.56;5073614;28;20020;-83
2023/10/26 04:25:57;;;;;;;;;;;;;;;12.49;100.00;96096.97;5079267;28;19925;-84
2023/10/26 04:28:23;;;;;;;;;;;;;;;12.53;100.00;96105.94;5070605;28;20019;-83
2023/10/26 04:30:53;;;;;;;;;;;;;;;12.55;100.00;96119.78;5074327;28;20026;-83
2023/10/26 04:33:19;;;;;;;;;;;;;;;12.51;100.00;96108.13;5083585;28;19942;-82
2023/10/26 04:35:46;;;;;;;;;;;;;;;12.54;100.00;96110.16;5075770;28;20304;-83
2023/10/26 04:38:13;;;;;;;;;;;;;;;12.60;100.00;96105.44;5073148;28;19928;-83
2023/10/26 04:40:40;;;;;;;;;;;;;;;12.65;100.00;96103.38;5080060;28;19924;-82
2023/10/26 04:43:06;;;;;;;;;;;;;;;12.51;100.00;96097.44;5076308;28;19962;-84
2023/10/26 04:45:33;;;;;;;;;;;;;;;12.59;100.00;96110.03;5054042;28;19932;-83
2023/10/26 04:48:02;;;;;;;;;;;;;;;12.55;100.00;96101.03;5074065;28;20295;-83
2023/10/26 04:50:30;;;;;;;;;;;;;;;12.57;100.00;96096.16;5080295;28;19936;-83
2023/10/26 04:52:56;;;;;;;;;;;;;;;12.59;100.00;96087.81;5055673;28;19928;-84
2023/10/26 04:55:22;;;;;;;;;;;;;;;12.54;100.00;96096.78;5066976;28;19929;-82
2023/10/26 04:57:48;;;;;;;;;;;;;;;12.63;100.00;96094.88;5081315;28;20596;-82
2023/10/26 05:00:15;;;;;;;;;;;;;;;12.64;100.00;96101.00;5082187;28;20474;-82
2023/10/26 05:02:42;;;;;;;;;;;;;;;12.58;100.00;96096.94;5076568;28;20019;-84
2023/10/26 05:05:09;;;;;;;;;;;;;;;12.64;100.00;96096.44;5068990;28;19935;-84
2023/10/26 05:07:36;;;;;;;;;;;;;;;12.52;100.00;96090.19;5077779;28;19932;-83
2023/10/26 05:10:03;;;;;;;;;;;;;;;12.49;100.00;96088.16;5068182;28;20135;-84
2023/10/26 05:12:29;;;;;;;;;;;;;;;12.53;100.00;96095.22;5070282;28;19924;-83
2023/10/26 05:14:56;;;;;;;;;;;;;;;12.50;100.00;96098.56;5086752;28;19928;-83
2023/10/26 05:17:22;;;;;;;;;;;;;;;12.58;100.00;96088.91;5087699;28;19975;-82
2023/10/26 05:19:49;;;;;;;;;;;;;;;12.49;100.00;96090.81;5076729;28;19962;-82
2023/10/26 05:22:17;;;;;;;;;;;;;;;12.57;100.00;96088.13;5074848;28;20409;-83
2023/10/26 05:24:44;;;;;;;;;;;;;;;12.56;100.00;96088.44;5087251;28;19928;-84
2023/10/26 05:27:10;;;;;;;;;;;;;;;12.48;100.00;96083.88;5088778;28;19925;-83
2023/10/26 05:29:37;;;;;;;;;;;;;;;12.41;100.00;96082.47;5088891;28;20371;-83
2023/10/26 05:32:03;;;;;;;;;;;;;;;12.41;100.00;96079.00;5083761;28;19931;-82
2023/10/26 05:34:30;;;;;;;;;;;;;;;12.37;100.00;96080.78;5075411;28;20151;-83
2023/10/26 05:36:56;;;;;;;;;;;;;;;12.43;100.00;96084.84;5079224;28;19932;-83
2023/10/26 05:39:24;;;;;;;;;;;;;;;12.36;100.00;96085.34;5077409;28;19930;-84
2023/10/26 05:41:51;;;;;;;;;;;;;;;12.47;100.00;96079.66;5077764;28;20023;-84
2023/10/26 05:44:18;;;;;;;;;;;;;;;12.45;100.00;96069.25;5074212;28;19928;-83
2023/10/26 05:46:44;;;;;;;;;;;;;;;12.38;100.00;96085.00;5058342;28;20007;-83
2023/10/26 05:49:10;;;;;;;;;;;;;;;12.38;100.00;96069.72;5086780;28;20310;-83
2023/10/26 05:51:37;;;;;;;;;;;;;;;12.36;100.00;96076.53;5079026;28;19934;-83
2023/10/26 05:54:03;;;;;;;;;;;;;;;12.39;100.00;96087.38;5070052;28;19925;-84
2023/10/26 05:56:31;;;;;;;;;;;;;;;12.48;100.00;96084.69;5060594;28;19924;-83
2023/10/26 05:58:57;;;;;;;;;;;;;;;12.42;100.00;96088.63;5067582;28;20306;-83
2023/10/26 06:01:23;;;;;;;;;;;;;;;12.49;100.00;96088.94;5074766;28;20346;-82
2023/10/26 06:03:50;;;;;;;;;;;;;;;12.51;100.00;96086.72;5089282;28;20387;-83
2023/10/26 06:06:16;;;;;;;;;;;;;;;12.58;100.00;96095.06;5089585;28;20026;-83
2023/10/26 06:08:43;;;;;;;;;;;;;;;12.57;100.00;96095.34;5077023;28;19975;-83
2023/10/26 06:11:09;;;;;;;;;;;;;;;12.62;100.00;96109.38;5071249;28;20032;-83
2023/10/26 06:13:36;;;;;;;;;;;;;;;12.52;100.00;96119.63;5090369;28;20023;-82
2023/10/26 06:16:03;;;;;;;;;;;;;;;12.54;100.00;96112.84;5070775;28;20662;-83
2023/10/26 06:18:29;;;;;;;;;;;;;;;12.60;100.00;96118.81;5080941;28;20035;-83
2023/10/26 06:20:56;;;;;;;;;;;;;;;12.49;100.00;96123.75;5077000;28;19979;-83
2023/10/26 06:23:23;;;;;;;;;;;;;;;12.48;100.00;96132.06;5083272;28;20014;-83
2023/10/26 06:25:49;;;;;;;;;;;;;;;12.46;100.00;96129.72;5078970;28;19924;-83
2023/10/26 06:28:17;;;;;;;;;;;;;;;12.56;100.00;96132.09;5071874;28;19972;-83
2023/10/26 06:30:44;;;;;;;;;;;;;;;12.39;100.00;96132.09;5077725;28;19975;-83
2023/10/26 06:33:12;;;;;;;;;;;;;;;12.45;100.00;96130.81;5076226;28;20342;-84
2023/10/26 06:35:39;;;;;;;;;;;;;;;12.48;100.00;96135.53;5080524;28;19924;-84
2023/10/26 06:38:05;;;;;;;;;;;;;;;12.54;100.00;96134.28;5079203;28;19928;-85
2023/10/26 06:40:32;;;;;;;;;;;;;;;12.56;100.00;96134.75;5090012;28;19924;-83
2023/10/26 06:42:58;;;;;;;;;;;;;;;12.61;100.00;96129.22;5078022;28;19931;-83
2023/10/26 06:45:25;;;;;;;;;;;;;;;12.61;100.00;96139.94;5079576;28;19968;-83
2023/10/26 06:47:53;;;;;;;;;;;;;;;12.66;100.00;96136.28;5076355;28;19924;-84
2023/10/26 06:50:19;;;;;;;;;;;;;;;12.67;100.00;96135.97;5068956;28;20042;-83
2023/10/26 06:52:46;;;;;;;;;;;;;;;12.66;100.00;96145.09;5079952;28;19934;-84
2023/10/26 06:55:15;;;;;;;;;;;;;;;12.54;100.00;96139.63;5078656;28;19925;-83
2023/10/26 06:57:41;;;;;;;;;;;;;;;12.59;100.00;96141.38;5080306;28;19925;-83
2023/10/26 07:00:08;;;;;;;;;;;;;;;12.51;100.00;96148.28;5076075;28;19928;-84
2023/10/26 07:02:34;;;;;;;;;;;;;;;12.53;100.00;96153.34;5077518;28;20289;-83
2023/10/26 07:05:02;;;;;;;;;;;;;;;12.51;100.00;96150.97;5077696;28;19927;-84
2023/10/26 07:07:28;;;;;;;;;;;;;;;12.54;100.00;96149.53;5076482;28;19934;-84
2023/10/26 07:09:55;;;;;;;;;;;;;;;12.47;100.00;96155.41;5089534;28;19928;-84
2023/10/26 07:12:21;;;;;;;;;;;;;;;12.49;100.00;96149.72;5085563;28;19961;-84
2023/10/26 07:14:52;;;;;;;;;;;;;;;12.58;100.00;96145.13;5087533;28;19924;-84
2023/10/26 07:17:18;;;;;;;;;;;;;;;12.56;100.00;96160.75;5090980;28;19984;-85
2023/10/26 07:19:45;;;;;;;;;;;;;;;12.62;100.00;96157.59;5079746;28;19935;-84
2023/10/26 07:22:12;;;;;;;;;;;;;;;12.61;100.00;96139.94;5071023;28;20665;-84
2023/10/26 07:24:39;;;;;;;;;;;;;;;12.66;100.00;96138.97;5073037;28;19934;-84
2023/10/26 07:27:05;;;;;;;;;;;;;;;12.65;100.00;96148.13;5069589;28;19931;-83
2023/10/26 07:29:32;;;;;;;;;;;;;;;12.65;100.00;96148.91;5082116;28;19924;-84
2023/10/26 07:31:59;;;;;;;;;;;;;;;12.63;100.00;96158.34;5095214;28;19934;-84
2023/10/26 07:34:26;;;;;;;;;;;;;;;12.68;100.00;96148.28;5069265;28;20368;-86
2023/10/26 07:36:52;;;;;;;;;;;;;;;12.69;100.00;96149.06;5085741;28;20010;-84
2023/10/26 07:39:20;;;;;;;;;;;;;;;12.69;100.00;96146.38;5076903;28;19929;-84
2023/10/26 07:41:47;;;;;;;;;;;;;;;12.70;100.00;96146.06;5081758;28;19970;-83
2023/10/26 07:44:13;;;;;;;;;;;;;;;12.76;100.00;96141.31;5072905;28;19965;-84
2023/10/26 07:46:39;;;;;;;;;;;;;;;12.66;100.00;96155.03;5070442;28;19924;-84
2023/10/26 07:49:06;;;;;;;;;;;;;;;12.71;100.00;96147.63;5058139;28;19946;-85
2023/10/26 07:51:32;;;;;;;;;;;;;;;12.71;100.00;96144.97;5092842;28;19956;-85
2023/10/26 07:53:58;;;;;;;;;;;;;;;12.69;100.00;96141.78;5061821;28;20024;-85
2023/10/26 07:56:26;;;;;;;;;;;;;;;12.75;100.00;96145.13;5075272;28;19928;-84
2023/10/26 07:58:52;;;;;;;;;;;;;;;12.72;100.00;96148.44;5069591;28;20003;-85
2023/10/26 08:01:19;;;;;;;;;;;;;;;12.78;100.00;96149.84;5073074;28;19934;-84
2023/10/26 08:03:45;;;;;;;;;;;;;;;12.81;100.00;96152.63;5070871;28;20011;-84
2023/10/26 08:06:11;;;;;;;;;;;;;;;12.89;100.00;96161.75;5074636;28;20446;-83
2023/10/26 08:08:38;;;;;;;;;;;;;;;12.78;100.00;96165.91;5070442;28;19928;-83
2023/10/26 08:11:08;;;;;;;;;;;;;;;12.71;100.00;96155.66;5077241;28;20023;-85
2023/10/26 08:13:35;;;;;;;;;;;;;;;12.84;100.00;96154.66;5077199;28;19928;-84
2023/10/26 08:16:02;;;;;;;;;;;;;;;12.80;100.00;96166.34;5095960;28;19977;-83
2023/10/26 08:18:28;;;;;;;;;;;;;;;12.94;100.00;96170.41;5082857;28;19955;-84
2023/10/26 08:20:54;;;;;;;;;;;;;;;12.79;100.00;96168.25;5069056;28;19924;-83
2023/10/26 08:23:21;;;;;;;;;;;;;;;12.84;100.00;96176.09;5071327;28;19924;-84
2023/10/26 08:25:47;;;;;;;;;;;;;;;12.78;100.00;96166.66;5090315;28;19924;-84
2023/10/26 08:28:15;;;;;;;;;;;;;;;12.83;100.00;96169.19;5089059;28;19924;-84
2023/10/26 08:30:43;;;;;;;;;;;;;;;12.81;100.00;96170.63;5088747;28;19924;-84
2023/10/26 08:33:09;;;;;;;;;;;;;;;12.86;100.00;96173.13;5073158;28;19924;-83
2023/10/26 08:35:35;;;;;;;;;;;;;;;12.91;100.00;96176.41;5090551;28;19978;-83
2023/10/26 08:38:02;;;;;;;;;;;;;;;12.94;100.00;96159.69;5082522;28;19930;-84
2023/10/26 08:40:28;;;;;;;;;;;;;;;12.95;100.00;96179.25;5088789;28;19985;-83
2023/10/26 08:42:56;;;;;;;;;;;;;;;13.08;100.00;96164.06;5072187;28;20505;-82
2023/10/26 08:45:23;;;;;;;;;;;;;;;13.20;100.00;96166.88;5090610;28;19924;-84
2023/10/26 08:47:51;;;;;;;;;;;;;;;13.04;100.00;96168.47;5077578;28;19924;-84
2023/10/26 08:50:20;;;;;;;;;;;;;;;13.09;100.00;96157.66;5089096;28;20418;-83
2023/10/26 08:52:46;;;;;;;;;;;;;;;13.06;100.00;96156.34;5082870;28;19928;-83
2023/10/26 08:55:13;;;;;;;;;;;;;;;13.14;100.00;96152.09;5067937;28;20408;-84
2023/10/26 08:57:50;;;;;;;;;;;;;;;13.18;100.00;96153.03;5089645;28;20317;-83
2023/10/26 09:00:17;;;;;;;;;;;;;;;13.28;100.00;96137.38;5071590;28;19928;-83
2023/10/26 09:02:43;;;;;;;;;;;;;;;13.15;100.00;96142.97;5064834;28;19924;-84
2023/10/26 09:05:11;;;;;;;;;;;;;;;12.93;100.00;96139.38;5070377;28;19931;-83
2023/10/26 09:07:38;;;;;;;;;;;;;;;12.97;100.00;96134.16;5078391;28;19928;-83
2023/10/26 09:10:05;;;;;;;;;;;;;;;13.03;100.00;96130.19;5068243;28;19928;-82
2023/10/26 09:12:31;;;;;;;;;;;;;;;13.02;100.00;96125.16;5070951;28;19932;-82
2023/10/26 09:14:58;;;;;;;;;;;;;;;13.09;100.00;96133.53;5074677;28;19935;-83
2023/10/26 09:17:25;;;;;;;;;;;;;;;13.10;100.00;96137.75;5068639;28;19936;-84
2023/10/26 09:19:51;;;;;;;;;;;;;;;12.97;100.00;96137.63;5076737;28;20031;-83
2023/10/26 09:22:19;;;;;;;;;;;;;;;13.11;100.00;96133.97;5068626;28;19928;-83
2023/10/26 09:24:45;;;;;;;;;;;;;;;13.09;100.00;96138.88;5069777;28;20327;-83
2023/10/26 09:27:18;;;;;;;;;;;;;;;13.18;100.00;96143.09;5071761;28;19947;-83
2023/10/26 09:29:44;;;;;;;;;;;;;;;13.21;100.00;96147.81;5076903;28;19924;-84
2023/10/26 09:32:11;;;;;;;;;;;;;;;13.16;100.00;96145.31;5056120;28;19925;-83
2023/10/26 09:34:41;;;;;;;;;;;;;;;13.22;100.00;96140.53;5076876;28;19955;-83
2023/10/26 09:37:08;;;;;;;;;;;;;;;13.17;100.00;96140.72;5086684;28;19936;-84
2023/10/26 09:39:37;;;;;;;;;;;;;;;13.18;100.00;96140.44;5074640;28;19931;-83
2023/10/26 09:42:05;;;;;;;;;;;;;;;13.20;100.00;96151.59;5076147;28;20018;-83
2023/10/26 09:44:32;;;;;;;;;;;;;;;13.29;100.00;96148.88;5090252;28;19970;-83
2023/10/26 09:46:59;;;;;;;;;;;;;;;13.27;100.00;96156.47;5087392;28;20458;-84
2023/10/26 09:49:25;;;;;;;;;;;;;;;13.36;100.00;96143.81;5074511;28;19924;-83
2023/10/26 09:51:52;;;;;;;;;;;;;;;13.40;100.00;96144.72;5086917;28;20469;-83
2023/10/26 09:54:19;;;;;;;;;;;;;;;13.42;100.00;96147.88;5090021;28;19924;-83
2023/10/26 09:56:48;;;;;;;;;;;;;;;13.38;100.00;96158.44;5082634;28;19931;-82
2023/10/26 09:59:15;;;;;;;;;;;;;;;13.56;100.00;96145.72;5069462;28;19925;-83
2023/10/26 10:01:41;;;;;;;;;;;;;;;13.60;100.00;96149.34;5077481;28;20580;-83
2023/10/26 10:04:09;;;;;;;;;;;;;;;13.52;100.00;96158.25;5069858;28;20553;-83
2023/10/26 10:06:44;;;;;;;;;;;;;;;13.37;100.00;96153.41;5079578;28;20007;-83
2023/10/26 10:09:10;;;;;;;;;;;;;;;13.35;100.00;96150.25;5068266;28;20400;-82
2023/10/26 10:11:38;;;;;;;;;;;;;;;13.40;100.00;96161.59;5075196;28;20364;-84
2023/10/26 10:14:06;;;;;;;;;;;;;;;13.46;100.00;96159.53;5076772;28;19931;-83
2023/10/26 10:16:52;;;;;;;;;;;;;;;13.46;100.00;96164.91;5071623;28;20034;-83
2023/10/26 10:19:19;;;;;;;;;;;;;;;13.39;100.00;96164.59;5079449;28;19935;-83
2023/10/26 10:21:47;;;;;;;;;;;;;;;13.48;100.00;96178.75;5072731;28;19931;-84
2023/10/26 10:24:39;;;;;;;;;;;;;;;13.46;100.00;96170.25;5072463;28;19932;-82
2023/10/26 10:27:08;;;;;;;;;;;;;;;13.45;100.00;96182.88;5069895;28;19936;-83
2023/10/26 10:29:35;;;;;;;;;;;;;;;13.53;100.00;96186.59;5072738;28;19925;-83
2023/10/26 10:32:02;;;;;;;;;;;;;;;13.50;100.00;96181.88;5077285;28;19928;-83
2023/10/26 10:34:29;;;;;;;;;;;;;;;13.53;100.00;96175.88;5078752;28;20020;-83
2023/10/26 10:37:08;;;;;;;;;;;;;;;13.46;100.00;96172.94;5082185;28;19975;-83
2023/10/26 10:39:34;;;;;;;;;;;;;;;13.51;100.00;96184.25;5071102;28;19924;-83
2023/10/26 10:42:01;;;;;;;;;;;;;;;13.67;100.00;96181.81;5072531;28;20277;-83
2023/10/26 10:44:29;;;;;;;;;;;;;;;13.73;100.00;96174.34;5079081;28;19928;-84
2023/10/26 10:46:56;;;;;;;;;;;;;;;13.75;100.00;96169.44;5091568;28;19947;-83
2023/10/26 10:49:25;;;;;;;;;;;;;;;13.67;100.00;96171.09;5057504;28;19928;-83
2023/10/26 10:51:51;;;;;;;;;;;;;;;13.61;100.00;96168.91;5082754;28;20611;-83
2023/10/26 10:54:22;;;;;;;;;;;;;;;13.53;100.00;96173.19;5074755;28;19951;-83
2023/10/26 10:56:49;;;;;;;;;;;;;;;13.55;100.00;96162.94;5078153;28;19970;-83
2023/10/26 10:59:16;;;;;;;;;;;;;;;13.61;100.00;96152.81;5070542;28;19924;-83
2023/10/26 11:01:43;;;;;;;;;;;;;;;13.66;100.00;96157.97;5091142;28;19998;-83
2023/10/26 11:04:13;;;;;;;;;;;;;;;13.68;100.00;96156.53;5068758;28;19935;-83
2023/10/26 11:06:45;;;;;;;;;;;;;;;13.69;100.00;96152.75;5079730;28;19924;-82
2023/10/26 11:09:24;;;;;;;;;;;;;;;13.71;100.00;96141.72;5049557;28;20414;-83
2023/10/26 11:11:50;;;;;;;;;;;;;;;13.49;100.00;96132.84;5081057;28;19928;-83
2023/10/26 11:14:18;;;;;;;;;;;;;;;13.47;100.00;96127.00;5074986;28;20400;-83
2023/10/26 11:16:45;;;;;;;;;;;;;;;13.44;100.00;96126.88;5073526;28;19925;-82
2023/10/26 11:19:12;;;;;;;;;;;;;;;13.51;100.00;96136.00;5077087;28;20390;-82
2023/10/26 11:21:39;;;;;;;;;;;;;;;13.51;100.00;96140.56;5073916;28;19932;-82
2023/10/26 11:24:06;;;;;;;;;;;;;;;13.49;100.00;96150.84;5072208;28;19924;-83
2023/10/26 11:26:32;;;;;;;;;;;;;;;13.65;100.00;96149.16;5068463;28;19935;-83
2023/10/26 11:29:00;;;;;;;;;;;;;;;13.70;100.00;96148.97;5073995;28;20019;-83
2023/10/26 11:31:36;;;;;;;;;;;;;;;13.62;100.00;96144.44;5083944;28;20007;-85
2023/10/26 11:34:06;;;;;;;;;;;;;;;13.64;100.00;96144.91;5082889;28;19975;-83
2023/10/26 11:36:34;;;;;;;;;;;;;;;13.68;100.00;96131.63;5085658;28;19928;-82
2023/10/26 11:39:00;;;;;;;;;;;;;;;13.69;100.00;96131.31;5070991;28;19965;-83
2023/10/26 11:41:28;;;;;;;;;;;;;;;13.59;100.00;96133.56;5072845;28;20069;-82
2023/10/26 11:43:54;;;;;;;;;;;;;;;13.70;100.00;96138.25;5066513;28;19924;-81
2023/10/26 11:46:31;;;;;;;;;;;;;;;13.75;100.00;96138.03;5080204;28;19934;-83
2023/10/26 11:48:57;;;;;;;;;;;;;;;13.71;100.00;96139.03;5085606;28;19931;-84
2023/10/26 11:51:23;;;;;;;;;;;;;;;13.64;100.00;96133.41;5071912;28;19935;-83
2023/10/26 11:53:50;;;;;;;;;;;;;;;13.67;100.00;96130.84;5073654;28;19928;-83
2023/10/26 11:56:17;;;;;;;;;;;;;;;13.69;100.00;96141.25;5073538;28;19931;-82
2023/10/26 11:58:43;;;;;;;;;;;;;;;13.75;100.00;96140.72;5079779;28;19928;-82
2023/10/26 12:01:10;;;;;;;;;;;;;;;13.80;100.00;96148.56;5073750;28;19928;-82
2023/10/26 12:03:36;;;;;;;;;;;;;;;13.74;100.00;96147.19;5072835;28;20011;-82
2023/10/26 12:06:03;;;;;;;;;;;;;;;13.72;100.00;96152.09;5073901;28;20517;-82
2023/10/26 12:08:29;;;;;;;;;;;;;;;13.74;100.00;96139.16;5072577;28;20027;-82
2023/10/26 12:10:57;;;;;;;;;;;;;;;13.77;100.00;96130.44;5076625;28;19931;-82
2023/10/26 12:13:23;;;;;;;;;;;;;;;13.73;100.00;96129.56;5075511;28;20355;-82
2023/10/26 12:15:50;;;;;;;;;;;;;;;13.76;100.00;96136.16;5070250;28;20013;-83
2023/10/26 12:18:16;;;;;;;;;;;;;;;13.77;100.00;96132.38;5079084;28;19924;-84
2023/10/26 12:20:42;;;;;;;;;;;;;;;13.78;100.00;96128.56;5087103;28;19978;-82
2023/10/26 12:23:09;;;;;;;;;;;;;;;13.69;100.00;96128.63;5087366;28;20618;-82
2023/10/26 12:25:36;;;;;;;;;;;;;;;13.76;100.00;96133.47;5087914;28;19928;-82
2023/10/26 12:28:03;;;;;;;;;;;;;;;13.71;100.00;96134.44;5079149;28;19928;-84
2023/10/26 12:30:31;;;;;;;;;;;;;;;13.64;100.00;96117.31;5086868;28;20391;-82
2023/10/26 12:32:57;;;;;;;;;;;;;;;13.71;100.00;96106.84;5080721;28;19924;-80
2023/10/26 12:35:24;;;;;;;;;;;;;;;13.65;100.00;96121.56;5087296;28;20011;-82